createdAt,value
2022-10-01T00:00:44.154Z,98.92
2022-10-01T00:01:44.155Z,98.82
2022-10-01T00:02:43.247Z,99.33
2022-10-01T00:03:44.646Z,99.43
2022-10-01T00:04:44.004Z,99.43
2022-10-01T00:05:44.163Z,99.33
2022-10-01T00:06:43.203Z,99.12
2022-10-01T00:07:43.164Z,99.12
2022-10-01T00:08:43.186Z,99.22
2022-10-01T00:09:43.175Z,99.43
2022-10-01T00:10:43.134Z,98.67
2022-10-01T00:11:43.136Z,98.87
2022-10-01T00:12:43.095Z,98.77
2022-10-01T00:13:43.129Z,98.77
2022-10-01T00:14:43.035Z,98.46
2022-10-01T00:15:43.073Z,98.25
2022-10-01T00:16:43.118Z,98.16
2022-10-01T00:17:43.026Z,97.54
2022-10-01T00:18:42.998Z,97.85
2022-10-01T00:19:43.018Z,97.64
2022-10-01T00:20:42.967Z,97.74
2022-10-01T00:21:42.979Z,97.85
2022-10-01T00:22:43.839Z,97.54
2022-10-01T00:23:43.720Z,97.74
2022-10-01T00:24:43.656Z,97.74
2022-10-01T00:25:42.957Z,97.74
2022-10-01T00:26:43.688Z,97.64
2022-10-01T00:27:43.886Z,97.74
2022-10-01T00:28:43.758Z,97.74
2022-10-01T00:29:42.860Z,97.54
2022-10-01T00:30:43.818Z,97.74
2022-10-01T00:31:44.390Z,97.89
2022-10-01T00:32:42.824Z,97.64
2022-10-01T00:33:43.784Z,97.64
2022-10-01T00:34:43.680Z,97.44
2022-10-01T00:35:43.596Z,97.64
2022-10-01T00:36:43.491Z,97.74
2022-10-01T00:37:43.660Z,97.69
2022-10-01T00:38:42.716Z,97.58
2022-10-01T00:39:42.751Z,97.89
2022-10-01T00:40:43.622Z,97.89
2022-10-01T00:41:43.142Z,97.99
2022-10-01T00:42:42.710Z,98.10
2022-10-01T00:43:42.662Z,97.99
2022-10-01T00:44:43.491Z,98.10
2022-10-01T00:45:43.421Z,98.20
2022-10-01T00:46:42.672Z,98.41
2022-10-01T00:47:42.603Z,98.51
2022-10-01T00:48:43.377Z,98.51
2022-10-01T00:49:43.529Z,98.71
2022-10-01T00:50:43.431Z,98.66
2022-10-01T00:51:42.574Z,98.66
2022-10-01T00:52:42.543Z,98.55
2022-10-01T00:53:42.556Z,98.76
2022-10-01T00:54:43.308Z,98.86
2022-10-01T00:55:42.493Z,99.07
2022-10-01T00:56:43.366Z,98.66
2022-10-01T00:57:42.584Z,99.07
2022-10-01T00:58:42.462Z,99.27
2022-10-01T00:59:42.503Z,99.27
2022-10-01T01:00:43.238Z,99.38
2022-10-01T01:01:42.524Z,99.42
2022-10-01T01:02:43.397Z,99.63
2022-10-01T01:03:42.429Z,99.73
2022-10-01T01:04:43.119Z,99.83
2022-10-01T01:05:43.266Z,99.83
2022-10-01T01:06:43.215Z,99.99
2022-10-01T01:07:43.119Z,99.99
2022-10-01T01:08:43.767Z,99.99
2022-10-01T01:09:42.298Z,99.99
2022-10-01T01:10:42.619Z,99.99
2022-10-01T01:11:42.314Z,99.99
2022-10-01T01:12:42.311Z,99.99
2022-10-01T01:13:42.266Z,99.99
2022-10-01T01:14:43.238Z,99.99
2022-10-01T01:15:43.162Z,99.99
2022-10-01T01:16:42.978Z,99.99
2022-10-01T01:17:43.146Z,99.99
2022-10-01T01:18:42.209Z,99.99
2022-10-01T01:19:42.950Z,99.99
2022-10-01T01:20:43.110Z,99.68
2022-10-01T01:21:43.016Z,99.73
2022-10-01T01:22:42.919Z,99.73
2022-10-01T01:23:43.079Z,99.73
2022-10-01T01:24:42.449Z,99.73
2022-10-01T01:25:42.053Z,99.93
2022-10-01T01:26:43.053Z,99.83
2022-10-01T01:27:42.997Z,99.93
2022-10-01T01:28:42.060Z,99.99
2022-10-01T01:29:42.090Z,99.99
2022-10-01T01:30:42.001Z,99.99
2022-10-01T01:31:42.821Z,99.99
2022-10-01T01:32:42.721Z,99.99
2022-10-01T01:33:41.939Z,99.99
2022-10-01T01:34:41.943Z,99.99
2022-10-01T01:35:42.008Z,99.99
2022-10-01T01:36:42.041Z,99.99
2022-10-01T01:37:41.941Z,99.99
2022-10-01T01:38:41.896Z,99.99
2022-10-01T01:39:41.894Z,99.99
2022-10-01T01:40:41.865Z,99.99
2022-10-01T01:41:42.632Z,99.99
2022-10-01T01:42:42.790Z,99.99
2022-10-01T01:43:41.852Z,99.89
2022-10-01T01:44:41.812Z,99.58
2022-10-01T01:45:41.917Z,99.58
2022-10-01T01:46:41.823Z,99.58
2022-10-01T01:47:41.773Z,99.48
2022-10-01T01:48:41.824Z,99.38
2022-10-01T01:49:41.754Z,99.07
2022-10-01T01:50:41.815Z,99.17
2022-10-01T01:51:41.796Z,99.22
2022-10-01T01:52:41.675Z,99.22
2022-10-01T01:53:42.502Z,99.43
2022-10-01T01:54:42.004Z,99.22
2022-10-01T01:55:42.565Z,99.54
2022-10-01T01:56:41.644Z,99.95
2022-10-01T01:57:41.642Z,99.54
2022-10-01T01:58:41.598Z,99.12
2022-10-01T01:59:42.047Z,99.22
2022-10-01T02:00:41.579Z,99.43
2022-10-01T02:01:41.858Z,99.74
2022-10-01T02:02:42.444Z,99.22
2022-10-01T02:03:41.798Z,98.71
2022-10-01T02:04:41.763Z,98.51
2022-10-01T02:05:42.376Z,98.05
2022-10-01T02:06:41.987Z,97.54
2022-10-01T02:07:42.928Z,97.74
2022-10-01T02:08:42.338Z,97.54
2022-10-01T02:09:42.247Z,97.33
2022-10-01T02:10:41.431Z,97.23
2022-10-01T02:11:42.327Z,97.13
2022-10-01T02:12:41.407Z,97.03
2022-10-01T02:13:41.368Z,97.03
2022-10-01T02:14:41.430Z,97.13
2022-10-01T02:15:41.431Z,97.13
2022-10-01T02:16:41.476Z,97.23
2022-10-01T02:17:41.458Z,97.44
2022-10-01T02:18:41.412Z,97.64
2022-10-01T02:19:42.126Z,96.67
2022-10-01T02:20:42.221Z,97.39
2022-10-01T02:21:42.123Z,97.08
2022-10-01T02:22:41.283Z,97.70
2022-10-01T02:23:41.289Z,97.49
2022-10-01T02:24:41.225Z,97.49
2022-10-01T02:25:41.221Z,97.08
2022-10-01T02:26:42.150Z,96.78
2022-10-01T02:27:41.164Z,96.47
2022-10-01T02:28:42.613Z,96.26
2022-10-01T02:29:41.172Z,96.26
2022-10-01T02:30:41.179Z,95.65
2022-10-01T02:31:41.986Z,95.86
2022-10-01T02:32:41.121Z,95.75
2022-10-01T02:33:41.992Z,95.86
2022-10-01T02:34:41.919Z,95.75
2022-10-01T02:35:41.090Z,95.86
2022-10-01T02:36:41.963Z,95.44
2022-10-01T02:37:41.064Z,95.86
2022-10-01T02:38:41.082Z,96.16
2022-10-01T02:39:42.485Z,96.26
2022-10-01T02:40:41.832Z,96.47
2022-10-01T02:41:42.021Z,96.78
2022-10-01T02:42:41.174Z,96.98
2022-10-01T02:43:43.048Z,97.60
2022-10-01T02:44:41.235Z,98.11
2022-10-01T02:45:41.897Z,98.00
2022-10-01T02:46:41.766Z,97.91
2022-10-01T02:47:41.691Z,98.62
2022-10-01T02:48:40.866Z,98.52
2022-10-01T02:49:41.760Z,98.62
2022-10-01T02:50:41.649Z,98.21
2022-10-01T02:51:41.810Z,98.72
2022-10-01T02:52:40.950Z,98.00
2022-10-01T02:53:41.613Z,97.44
2022-10-01T02:54:41.766Z,97.54
2022-10-01T02:55:40.824Z,97.54
2022-10-01T02:56:48.420Z,97.74
2022-10-01T02:57:41.770Z,97.95
2022-10-01T02:58:41.640Z,97.95
2022-10-01T02:59:41.545Z,98.16
2022-10-01T03:00:41.445Z,98.36
2022-10-01T03:01:41.644Z,98.36
2022-10-01T03:02:41.681Z,98.57
2022-10-01T03:03:41.423Z,98.36
2022-10-01T03:04:41.568Z,98.36
2022-10-01T03:05:40.681Z,98.46
2022-10-01T03:06:40.625Z,98.77
2022-10-01T03:07:41.542Z,98.67
2022-10-01T03:08:41.458Z,98.97
2022-10-01T03:09:40.589Z,99.22
2022-10-01T03:10:43.494Z,98.97
2022-10-01T03:11:41.844Z,99.69
2022-10-01T03:12:41.319Z,99.59
2022-10-01T03:13:41.251Z,99.99
2022-10-01T03:14:40.604Z,99.99
2022-10-01T03:15:40.529Z,99.99
2022-10-01T03:16:40.481Z,99.99
2022-10-01T03:17:41.232Z,99.99
2022-10-01T03:18:40.421Z,99.99
2022-10-01T03:19:41.432Z,99.99
2022-10-01T03:20:40.457Z,99.99
2022-10-01T03:21:41.222Z,99.08
2022-10-01T03:22:40.382Z,98.67
2022-10-01T03:23:40.371Z,98.36
2022-10-01T03:24:40.345Z,97.85
2022-10-01T03:25:41.096Z,97.29
2022-10-01T03:26:40.362Z,97.49
2022-10-01T03:27:40.702Z,96.98
2022-10-01T03:28:40.774Z,96.67
2022-10-01T03:29:40.256Z,96.06
2022-10-01T03:30:40.275Z,95.81
2022-10-01T03:31:41.053Z,95.91
2022-10-01T03:32:41.195Z,95.09
2022-10-01T03:33:41.804Z,94.48
2022-10-01T03:34:40.994Z,94.27
2022-10-01T03:35:41.163Z,94.37
2022-10-01T03:36:41.072Z,94.12
2022-10-01T03:37:40.964Z,93.82
2022-10-01T03:38:41.143Z,93.51
2022-10-01T03:39:41.037Z,93.71
2022-10-01T03:40:40.139Z,93.92
2022-10-01T03:41:41.098Z,93.62
2022-10-01T03:42:40.995Z,93.16
2022-10-01T03:43:40.902Z,93.57
2022-10-01T03:44:41.505Z,92.85
2022-10-01T03:45:40.119Z,92.75
2022-10-01T03:46:40.056Z,93.47
2022-10-01T03:47:40.774Z,93.26
2022-10-01T03:48:40.939Z,92.75
2022-10-01T03:49:40.841Z,92.44
2022-10-01T03:50:40.998Z,92.34
2022-10-01T03:51:39.999Z,92.14
2022-10-01T03:52:39.968Z,91.73
2022-10-01T03:53:40.707Z,92.03
2022-10-01T03:54:40.870Z,91.27
2022-10-01T03:55:40.777Z,91.27
2022-10-01T03:56:39.983Z,91.58
2022-10-01T03:57:39.868Z,91.38
2022-10-01T03:58:40.739Z,90.97
2022-10-01T03:59:40.643Z,91.07
2022-10-01T04:00:39.873Z,91.27
2022-10-01T04:01:40.023Z,90.97
2022-10-01T04:02:40.705Z,91.07
2022-10-01T04:03:39.792Z,91.38
2022-10-01T04:04:40.680Z,91.38
2022-10-01T04:05:40.584Z,91.99
2022-10-01T04:06:39.760Z,91.99
2022-10-01T04:07:39.721Z,92.19
2022-10-01T04:08:40.551Z,92.19
2022-10-01T04:09:40.712Z,92.81
2022-10-01T04:10:40.616Z,92.81
2022-10-01T04:11:40.521Z,93.22
2022-10-01T04:12:40.425Z,93.22
2022-10-01T04:13:40.593Z,93.43
2022-10-01T04:14:40.482Z,93.43
2022-10-01T04:15:40.393Z,94.85
2022-10-01T04:16:41.176Z,95.67
2022-10-01T04:17:43.887Z,94.85
2022-10-01T04:18:41.383Z,96.59
2022-10-01T04:19:39.563Z,96.91
2022-10-01T04:20:39.631Z,97.36
2022-10-01T04:21:41.123Z,98.58
2022-10-01T04:22:39.574Z,98.07
2022-10-01T04:23:40.408Z,98.83
2022-10-01T04:24:40.294Z,99.15
2022-10-01T04:25:40.475Z,99.55
2022-10-01T04:26:40.359Z,99.35
2022-10-01T04:27:40.262Z,99.96
2022-10-01T04:28:40.422Z,99.99
2022-10-01T04:29:40.320Z,99.99
2022-10-01T04:30:40.277Z,99.99
2022-10-01T04:31:40.453Z,99.99
2022-10-01T04:32:40.294Z,99.99
2022-10-01T04:33:39.506Z,99.99
2022-10-01T04:34:40.356Z,99.99
2022-10-01T04:35:39.349Z,99.99
2022-10-01T04:36:39.526Z,99.99
2022-10-01T04:37:39.336Z,99.99
2022-10-01T04:38:39.308Z,99.99
2022-10-01T04:39:40.161Z,99.99
2022-10-01T04:40:40.062Z,99.99
2022-10-01T04:41:39.476Z,99.99
2022-10-01T04:42:40.710Z,99.99
2022-10-01T04:43:40.017Z,99.99
2022-10-01T04:44:40.170Z,99.99
2022-10-01T04:45:40.073Z,99.99
2022-10-01T04:46:39.311Z,99.99
2022-10-01T04:47:40.138Z,99.99
2022-10-01T04:48:40.039Z,99.99
2022-10-01T04:49:39.953Z,99.99
2022-10-01T04:50:39.120Z,99.99
2022-10-01T04:51:39.127Z,99.99
2022-10-01T04:52:39.113Z,99.99
2022-10-01T04:53:39.123Z,99.99
2022-10-01T04:54:39.971Z,99.99
2022-10-01T04:55:39.266Z,99.99
2022-10-01T04:56:40.129Z,99.99
2022-10-01T04:57:39.943Z,99.99
2022-10-01T04:58:39.956Z,99.99
2022-10-01T04:59:39.751Z,99.99
2022-10-01T05:00:39.044Z,99.99
2022-10-01T05:01:39.295Z,99.99
2022-10-01T05:02:39.726Z,99.99
2022-10-01T05:03:39.890Z,99.99
2022-10-01T05:04:38.958Z,99.99
2022-10-01T05:05:38.945Z,99.99
2022-10-01T05:06:38.943Z,99.99
2022-10-01T05:07:39.751Z,99.99
2022-10-01T05:08:39.654Z,99.99
2022-10-01T05:09:38.948Z,99.99
2022-10-01T05:10:39.716Z,99.99
2022-10-01T05:11:39.691Z,99.99
2022-10-01T05:12:39.857Z,99.99
2022-10-01T05:13:38.813Z,99.99
2022-10-01T05:14:39.638Z,99.99
2022-10-01T05:15:39.755Z,99.99
2022-10-01T05:16:38.872Z,99.99
2022-10-01T05:17:39.568Z,99.99
2022-10-01T05:18:39.777Z,99.99
2022-10-01T05:19:39.627Z,99.99
2022-10-01T05:20:38.847Z,99.99
2022-10-01T05:21:38.716Z,99.99
2022-10-01T05:22:38.797Z,99.99
2022-10-01T05:23:39.521Z,99.99
2022-10-01T05:24:39.396Z,99.99
2022-10-01T05:25:39.557Z,99.99
2022-10-01T05:26:39.494Z,99.99
2022-10-01T05:27:39.384Z,99.99
2022-10-01T05:28:39.646Z,99.99
2022-10-01T05:29:38.581Z,99.99
2022-10-01T05:30:38.601Z,99.99
2022-10-01T05:31:39.083Z,99.99
2022-10-01T05:32:38.514Z,99.99
2022-10-01T05:33:39.303Z,99.99
2022-10-01T05:34:38.516Z,99.99
2022-10-01T05:35:38.718Z,99.99
2022-10-01T05:36:38.494Z,99.99
2022-10-01T05:37:39.433Z,99.99
2022-10-01T05:38:39.343Z,99.99
2022-10-01T05:39:38.480Z,99.99
2022-10-01T05:40:39.392Z,99.99
2022-10-01T05:41:39.155Z,99.99
2022-10-01T05:42:38.484Z,99.99
2022-10-01T05:43:38.443Z,99.99
2022-10-01T05:44:38.606Z,99.99
2022-10-01T05:45:39.256Z,99.99
2022-10-01T05:46:39.184Z,99.99
2022-10-01T05:47:38.352Z,99.99
2022-10-01T05:48:38.460Z,99.99
2022-10-01T05:49:39.048Z,99.99
2022-10-01T05:50:38.299Z,99.99
2022-10-01T05:51:39.148Z,99.99
2022-10-01T05:52:38.267Z,99.99
2022-10-01T05:53:38.285Z,99.99
2022-10-01T05:54:39.114Z,99.99
2022-10-01T05:55:38.996Z,99.99
2022-10-01T05:56:38.255Z,99.99
2022-10-01T05:57:39.064Z,99.99
2022-10-01T05:58:38.960Z,99.99
2022-10-01T05:59:38.191Z,99.99
2022-10-01T06:00:39.022Z,99.99
2022-10-01T06:01:38.955Z,99.99
2022-10-01T06:02:39.159Z,99.99
2022-10-01T06:03:38.201Z,99.99
2022-10-01T06:04:41.212Z,99.99
2022-10-01T06:05:38.201Z,99.99
2022-10-01T06:06:38.950Z,99.99
2022-10-01T06:07:38.857Z,99.99
2022-10-01T06:08:38.984Z,99.99
2022-10-01T06:09:38.103Z,99.99
2022-10-01T06:10:38.033Z,99.99
2022-10-01T06:11:38.741Z,99.99
2022-10-01T06:12:38.884Z,99.99
2022-10-01T06:13:38.804Z,99.99
2022-10-01T06:14:37.943Z,99.99
2022-10-01T06:15:38.101Z,99.99
2022-10-01T06:16:37.984Z,99.99
2022-10-01T06:17:37.886Z,99.99
2022-10-01T06:18:38.824Z,99.99
2022-10-01T06:19:37.859Z,99.99
2022-10-01T06:20:38.640Z,99.99
2022-10-01T06:21:38.786Z,99.99
2022-10-01T06:22:38.147Z,99.99
2022-10-01T06:23:37.827Z,99.99
2022-10-01T06:24:38.207Z,99.99
2022-10-01T06:25:39.232Z,99.99
2022-10-01T06:26:38.568Z,99.99
2022-10-01T06:27:37.788Z,99.99
2022-10-01T06:28:37.742Z,99.99
2022-10-01T06:29:38.528Z,99.99
2022-10-01T06:30:37.716Z,99.99
2022-10-01T06:31:38.202Z,99.99
2022-10-01T06:32:37.659Z,99.99
2022-10-01T06:33:38.405Z,99.99
2022-10-01T06:34:38.565Z,99.99
2022-10-01T06:35:37.611Z,99.99
2022-10-01T06:36:38.371Z,99.99
2022-10-01T06:37:38.530Z,99.99
2022-10-01T06:38:38.437Z,99.99
2022-10-01T06:39:38.339Z,99.99
2022-10-01T06:40:37.549Z,99.99
2022-10-01T06:41:38.404Z,99.99
2022-10-01T06:42:38.324Z,99.99
2022-10-01T06:43:38.471Z,99.99
2022-10-01T06:44:38.376Z,99.99
2022-10-01T06:45:38.372Z,99.99
2022-10-01T06:46:38.486Z,99.99
2022-10-01T06:47:38.271Z,99.99
2022-10-01T06:48:38.229Z,99.99
2022-10-01T06:49:37.441Z,99.99
2022-10-01T06:50:38.364Z,99.99
2022-10-01T06:51:37.462Z,99.99
2022-10-01T06:52:38.375Z,99.99
2022-10-01T06:53:38.873Z,99.99
2022-10-01T06:54:37.355Z,99.99
2022-10-01T06:55:38.126Z,99.99
2022-10-01T06:56:37.344Z,99.99
2022-10-01T06:57:37.354Z,99.99
2022-10-01T06:58:38.052Z,99.99
2022-10-01T06:59:37.321Z,99.99
2022-10-01T07:00:37.353Z,99.99
2022-10-01T07:01:37.917Z,99.99
2022-10-01T07:02:38.460Z,99.99
2022-10-01T07:03:38.085Z,99.99
2022-10-01T07:04:37.985Z,99.99
2022-10-01T07:05:38.165Z,99.99
2022-10-01T07:06:37.214Z,99.99
2022-10-01T07:07:37.955Z,99.99
2022-10-01T07:08:38.122Z,99.99
2022-10-01T07:09:38.017Z,99.99
2022-10-01T07:10:38.565Z,99.99
2022-10-01T07:11:38.107Z,99.99
2022-10-01T07:12:37.985Z,99.99
2022-10-01T07:13:37.908Z,99.99
2022-10-01T07:14:38.056Z,99.99
2022-10-01T07:15:37.964Z,99.99
2022-10-01T07:16:38.514Z,99.99
2022-10-01T07:17:37.009Z,99.99
2022-10-01T07:18:37.968Z,99.99
2022-10-01T07:19:37.837Z,99.99
2022-10-01T07:20:37.735Z,99.99
2022-10-01T07:21:37.921Z,99.99
2022-10-01T07:22:37.800Z,99.99
2022-10-01T07:23:36.968Z,99.99
2022-10-01T07:24:37.858Z,99.99
2022-10-01T07:25:37.769Z,99.99
2022-10-01T07:26:37.667Z,99.99
2022-10-01T07:27:37.827Z,99.99
2022-10-01T07:28:37.737Z,99.99
2022-10-01T07:29:37.642Z,99.99
2022-10-01T07:30:36.830Z,99.99
2022-10-01T07:31:37.295Z,99.99
2022-10-01T07:32:37.613Z,99.99
2022-10-01T07:33:36.809Z,99.99
2022-10-01T07:34:36.813Z,99.99
2022-10-01T07:35:36.771Z,99.99
2022-10-01T07:36:36.793Z,99.99
2022-10-01T07:37:36.754Z,99.99
2022-10-01T07:38:37.572Z,99.99
2022-10-01T07:39:36.731Z,99.99
2022-10-01T07:40:36.868Z,99.99
2022-10-01T07:41:37.511Z,99.99
2022-10-01T07:42:38.184Z,99.99
2022-10-01T07:43:36.677Z,99.99
2022-10-01T07:44:37.492Z,99.99
2022-10-01T07:45:37.603Z,99.99
2022-10-01T07:46:36.592Z,99.99
2022-10-01T07:47:36.609Z,99.99
2022-10-01T07:48:36.594Z,99.99
2022-10-01T07:49:36.573Z,99.99
2022-10-01T07:50:36.533Z,99.99
2022-10-01T07:51:37.317Z,99.99
2022-10-01T07:52:37.474Z,99.99
2022-10-01T07:53:37.381Z,99.99
2022-10-01T07:54:37.962Z,99.99
2022-10-01T07:55:37.445Z,99.99
2022-10-01T07:56:37.361Z,99.99
2022-10-01T07:57:37.255Z,99.99
2022-10-01T07:58:37.415Z,99.99
2022-10-01T07:59:37.316Z,99.99
2022-10-01T08:00:37.224Z,99.99
2022-10-01T08:01:36.854Z,99.99
2022-10-01T08:02:36.405Z,99.99
2022-10-01T08:03:37.186Z,99.99
2022-10-01T08:04:36.335Z,99.99
2022-10-01T08:05:36.365Z,99.99
2022-10-01T08:06:36.326Z,99.99
2022-10-01T08:07:36.308Z,99.99
2022-10-01T08:08:37.227Z,99.99
2022-10-01T08:09:36.276Z,99.99
2022-10-01T08:10:36.248Z,99.99
2022-10-01T08:11:36.597Z,99.99
2022-10-01T08:12:37.087Z,99.99
2022-10-01T08:13:37.000Z,99.99
2022-10-01T08:14:36.288Z,99.99
2022-10-01T08:15:36.176Z,99.99
2022-10-01T08:16:37.026Z,99.99
2022-10-01T08:17:36.168Z,99.99
2022-10-01T08:18:36.128Z,99.99
2022-10-01T08:19:36.124Z,99.99
2022-10-01T08:20:37.107Z,99.99
2022-10-01T08:21:37.216Z,99.99
2022-10-01T08:22:41.695Z,99.99
2022-10-01T08:23:37.831Z,99.99
2022-10-01T08:24:36.030Z,99.99
2022-10-01T08:25:36.061Z,99.99
2022-10-01T08:26:36.771Z,99.99
2022-10-01T08:27:36.931Z,99.99
2022-10-01T08:28:36.012Z,99.99
2022-10-01T08:29:36.749Z,99.99
2022-10-01T08:30:36.903Z,99.99
2022-10-01T08:31:37.230Z,99.99
2022-10-01T08:32:35.934Z,99.99
2022-10-01T08:33:36.872Z,99.99
2022-10-01T08:34:35.923Z,99.99
2022-10-01T08:35:35.896Z,99.99
2022-10-01T08:36:36.833Z,99.99
2022-10-01T08:37:36.758Z,99.99
2022-10-01T08:38:35.883Z,99.99
2022-10-01T08:39:35.842Z,99.99
2022-10-01T08:40:36.741Z,99.99
2022-10-01T08:41:36.147Z,99.99
2022-10-01T08:42:36.774Z,99.99
2022-10-01T08:43:36.684Z,99.99
2022-10-01T08:44:36.619Z,99.99
2022-10-01T08:45:35.786Z,99.99
2022-10-01T08:46:37.177Z,99.99
2022-10-01T08:47:36.552Z,99.99
2022-10-01T08:48:35.707Z,99.99
2022-10-01T08:49:36.615Z,99.99
2022-10-01T08:50:36.518Z,99.99
2022-10-01T08:51:36.666Z,99.99
2022-10-01T08:52:35.711Z,99.99
2022-10-01T08:53:36.485Z,99.99
2022-10-01T08:54:36.395Z,99.99
2022-10-01T08:55:35.678Z,99.99
2022-10-01T08:56:36.456Z,99.99
2022-10-01T08:57:36.357Z,99.99
2022-10-01T08:58:35.828Z,99.99
2022-10-01T08:59:36.418Z,99.99
2022-10-01T09:00:35.586Z,99.99
2022-10-01T09:01:35.846Z,99.99
2022-10-01T09:02:35.518Z,99.99
2022-10-01T09:03:35.479Z,99.99
2022-10-01T09:04:35.890Z,99.99
2022-10-01T09:05:36.360Z,99.99
2022-10-01T09:06:35.518Z,99.99
2022-10-01T09:07:36.899Z,99.99
2022-10-01T09:08:36.321Z,99.99
2022-10-01T09:09:36.230Z,99.99
2022-10-01T09:10:36.389Z,99.99
2022-10-01T09:11:36.650Z,99.99
2022-10-01T09:12:36.879Z,99.99
2022-10-01T09:13:36.361Z,99.99
2022-10-01T09:14:35.323Z,99.99
2022-10-01T09:15:36.165Z,99.99
2022-10-01T09:16:36.102Z,99.99
2022-10-01T09:17:36.233Z,99.99
2022-10-01T09:18:36.144Z,99.99
2022-10-01T09:19:36.032Z,99.99
2022-10-01T09:20:36.193Z,99.99
2022-10-01T09:21:36.422Z,99.99
2022-10-01T09:22:36.003Z,99.99
2022-10-01T09:23:35.262Z,99.99
2022-10-01T09:24:35.374Z,99.99
2022-10-01T09:25:35.194Z,99.99
2022-10-01T09:26:36.162Z,99.99
2022-10-01T09:27:35.185Z,99.99
2022-10-01T09:28:35.174Z,99.99
2022-10-01T09:29:35.119Z,99.99
2022-10-01T09:30:35.095Z,99.99
2022-10-01T09:31:35.417Z,99.99
2022-10-01T09:32:36.065Z,99.99
2022-10-01T09:33:35.087Z,99.99
2022-10-01T09:34:35.092Z,99.99
2022-10-01T09:35:35.235Z,99.99
2022-10-01T09:36:35.241Z,99.99
2022-10-01T09:37:35.852Z,99.99
2022-10-01T09:38:35.748Z,99.99
2022-10-01T09:39:35.908Z,99.99
2022-10-01T09:40:34.996Z,99.99
2022-10-01T09:41:36.309Z,99.99
2022-10-01T09:42:35.878Z,99.99
2022-10-01T09:43:34.939Z,99.99
2022-10-01T09:44:34.983Z,99.99
2022-10-01T09:45:36.034Z,99.99
2022-10-01T09:46:34.897Z,99.99
2022-10-01T09:47:35.648Z,99.99
2022-10-01T09:48:34.886Z,99.99
2022-10-01T09:49:35.726Z,99.99
2022-10-01T09:50:35.618Z,99.99
2022-10-01T09:51:38.233Z,99.99
2022-10-01T09:52:36.710Z,99.99
2022-10-01T09:53:35.592Z,99.99
2022-10-01T09:54:36.275Z,99.99
2022-10-01T09:55:34.759Z,99.99
2022-10-01T09:56:35.591Z,99.99
2022-10-01T09:57:34.750Z,99.99
2022-10-01T09:58:35.620Z,99.99
2022-10-01T09:59:34.704Z,99.99
2022-10-01T10:00:34.690Z,99.99
2022-10-01T10:01:35.612Z,99.99
2022-10-01T10:02:35.268Z,99.99
2022-10-01T10:03:35.735Z,99.99
2022-10-01T10:04:35.004Z,99.99
2022-10-01T10:05:35.183Z,99.99
2022-10-01T10:06:35.514Z,99.99
2022-10-01T10:07:35.271Z,99.99
2022-10-01T10:08:34.593Z,99.99
2022-10-01T10:09:34.624Z,99.99
2022-10-01T10:10:35.593Z,99.99
2022-10-01T10:11:35.914Z,99.99
2022-10-01T10:12:35.571Z,99.99
2022-10-01T10:13:34.514Z,99.99
2022-10-01T10:14:34.544Z,99.99
2022-10-01T10:15:35.332Z,99.99
2022-10-01T10:16:35.845Z,99.99
2022-10-01T10:17:35.334Z,99.99
2022-10-01T10:18:34.455Z,99.99
2022-10-01T10:19:34.457Z,99.99
2022-10-01T10:20:34.416Z,99.99
2022-10-01T10:21:35.208Z,99.99
2022-10-01T10:22:35.367Z,99.99
2022-10-01T10:23:35.361Z,99.99
2022-10-01T10:24:35.178Z,99.99
2022-10-01T10:25:35.338Z,99.99
2022-10-01T10:26:34.725Z,99.99
2022-10-01T10:27:35.143Z,99.99
2022-10-01T10:28:37.665Z,99.99
2022-10-01T10:29:34.300Z,99.99
2022-10-01T10:30:35.150Z,99.99
2022-10-01T10:31:35.065Z,99.99
2022-10-01T10:32:35.199Z,99.99
2022-10-01T10:33:34.240Z,99.99
2022-10-01T10:34:34.993Z,99.99
2022-10-01T10:35:35.140Z,99.99
2022-10-01T10:36:35.280Z,99.99
2022-10-01T10:37:34.950Z,99.99
2022-10-01T10:38:34.162Z,99.99
2022-10-01T10:39:34.171Z,99.99
2022-10-01T10:40:34.162Z,99.99
2022-10-01T10:41:34.393Z,99.99
2022-10-01T10:42:35.571Z,99.99
2022-10-01T10:43:34.114Z,99.99
2022-10-01T10:44:35.173Z,99.99
2022-10-01T10:45:34.963Z,99.99
2022-10-01T10:46:34.960Z,99.99
2022-10-01T10:47:34.083Z,99.99
2022-10-01T10:48:34.920Z,99.99
2022-10-01T10:49:34.054Z,99.99
2022-10-01T10:50:34.984Z,99.99
2022-10-01T10:51:34.246Z,99.99
2022-10-01T10:52:34.333Z,99.99
2022-10-01T10:53:33.966Z,99.99
2022-10-01T10:54:34.869Z,99.99
2022-10-01T10:55:33.949Z,99.99
2022-10-01T10:56:34.134Z,99.99
2022-10-01T10:57:33.927Z,99.99
2022-10-01T10:58:34.269Z,99.99
2022-10-01T10:59:34.628Z,99.99
2022-10-01T11:00:34.787Z,99.99
2022-10-01T11:01:34.013Z,99.99
2022-10-01T11:02:33.911Z,99.99
2022-10-01T11:03:33.817Z,99.99
2022-10-01T11:04:34.278Z,99.99
2022-10-01T11:05:34.569Z,99.99
2022-10-01T11:06:34.532Z,99.99
2022-10-01T11:07:34.292Z,99.99
2022-10-01T11:08:34.458Z,99.99
2022-10-01T11:09:33.760Z,99.99
2022-10-01T11:10:34.600Z,99.99
2022-10-01T11:11:33.785Z,99.99
2022-10-01T11:12:33.693Z,99.99
2022-10-01T11:13:34.665Z,99.99
2022-10-01T11:14:33.671Z,99.99
2022-10-01T11:15:34.730Z,99.99
2022-10-01T11:16:34.769Z,99.99
2022-10-01T11:17:33.962Z,99.99
2022-10-01T11:18:33.987Z,99.99
2022-10-01T11:19:33.603Z,99.99
2022-10-01T11:20:34.412Z,99.99
2022-10-01T11:21:33.591Z,99.99
2022-10-01T11:22:34.472Z,99.57
2022-10-01T11:23:34.375Z,98.11
2022-10-01T11:24:34.974Z,95.96
2022-10-01T11:25:33.526Z,93.60
2022-10-01T11:26:33.664Z,92.30
2022-10-01T11:27:33.467Z,92.06
2022-10-01T11:28:34.408Z,91.51
2022-10-01T11:29:34.307Z,90.12
2022-10-01T11:30:34.214Z,89.92
2022-10-01T11:31:34.402Z,87.21
2022-10-01T11:32:33.438Z,86.46
2022-10-01T11:33:33.420Z,85.25
2022-10-01T11:34:34.809Z,86.30
2022-10-01T11:35:33.349Z,86.30
2022-10-01T11:36:34.357Z,87.57
2022-10-01T11:37:34.306Z,86.46
2022-10-01T11:38:34.210Z,86.94
2022-10-01T11:39:34.118Z,88.84
2022-10-01T11:40:34.283Z,88.22
2022-10-01T11:41:33.312Z,91.63
2022-10-01T11:42:33.299Z,92.88
2022-10-01T11:43:33.285Z,92.75
2022-10-01T11:44:33.254Z,87.63
2022-10-01T11:45:34.052Z,87.04
2022-10-01T11:46:33.616Z,86.16
2022-10-01T11:47:34.124Z,83.49
2022-10-01T11:48:34.022Z,85.68
2022-10-01T11:49:33.924Z,86.56
2022-10-01T11:50:39.075Z,86.88
2022-10-01T11:51:33.990Z,88.59
2022-10-01T11:52:33.920Z,88.55
2022-10-01T11:53:34.066Z,87.89
2022-10-01T11:54:33.965Z,87.91
2022-10-01T11:55:33.866Z,87.08
2022-10-01T11:56:33.421Z,85.44
2022-10-01T11:57:33.964Z,84.31
2022-10-01T11:58:33.838Z,85.13
2022-10-01T11:59:34.012Z,82.51
2022-10-01T12:00:33.905Z,80.44
2022-10-01T12:01:33.071Z,81.93
2022-10-01T12:02:33.023Z,84.11
2022-10-01T12:03:33.345Z,83.23
2022-10-01T12:04:33.777Z,86.38
2022-10-01T12:05:33.557Z,87.47
2022-10-01T12:06:34.536Z,88.62
2022-10-01T12:07:33.750Z,87.57
2022-10-01T12:08:33.946Z,86.41
2022-10-01T12:09:32.920Z,88.96
2022-10-01T12:10:33.709Z,88.43
2022-10-01T12:11:32.946Z,86.30
2022-10-01T12:12:33.777Z,85.27
2022-10-01T12:13:32.894Z,84.39
2022-10-01T12:14:33.229Z,80.91
2022-10-01T12:15:32.840Z,81.23
2022-10-01T12:16:33.848Z,80.05
2022-10-01T12:17:33.553Z,78.92
2022-10-01T12:18:33.748Z,77.78
2022-10-01T12:19:33.620Z,76.48
2022-10-01T12:20:33.559Z,74.65
2022-10-01T12:21:32.895Z,74.45
2022-10-01T12:22:34.256Z,73.45
2022-10-01T12:23:33.486Z,72.95
2022-10-01T12:24:33.673Z,75.55
2022-10-01T12:25:32.754Z,72.89
2022-10-01T12:26:33.125Z,71.86
2022-10-01T12:27:32.656Z,74.32
2022-10-01T12:28:33.642Z,72.62
2022-10-01T12:29:32.681Z,72.99
2022-10-01T12:30:33.600Z,71.46
2022-10-01T12:31:33.552Z,72.82
2022-10-01T12:32:32.595Z,71.12
2022-10-01T12:33:33.628Z,72.96
2022-10-01T12:34:33.481Z,73.13
2022-10-01T12:35:32.537Z,72.92
2022-10-01T12:36:33.109Z,71.49
2022-10-01T12:37:33.423Z,72.13
2022-10-01T12:38:32.553Z,71.46
2022-10-01T12:39:33.229Z,73.77
2022-10-01T12:40:33.401Z,76.75
2022-10-01T12:41:32.569Z,74.43
2022-10-01T12:42:33.199Z,74.93
2022-10-01T12:43:32.447Z,71.79
2022-10-01T12:44:33.336Z,72.23
2022-10-01T12:45:33.194Z,71.69
2022-10-01T12:46:32.677Z,71.59
2022-10-01T12:47:32.416Z,68.49
2022-10-01T12:48:33.133Z,71.49
2022-10-01T12:49:32.390Z,74.23
2022-10-01T12:50:33.204Z,75.34
2022-10-01T12:51:33.103Z,78.12
2022-10-01T12:52:33.259Z,78.50